createdAt,value
2022-12-31T00:00:14.179Z,87.51
2022-12-31T00:05:38.136Z,87.88
2022-12-31T00:10:41.747Z,87.83
2022-12-31T00:15:45.238Z,87.98
2022-12-31T00:20:47.979Z,88.06
2022-12-31T00:25:50.748Z,87.99
2022-12-31T00:30:53.567Z,87.88
2022-12-31T00:36:10.601Z,87.99
2022-12-31T00:41:13.703Z,87.93
2022-12-31T00:46:16.905Z,88.14
2022-12-31T00:51:22.074Z,88.09
2022-12-31T00:56:27.697Z,88.18
2022-12-31T01:01:34.079Z,88.11
2022-12-31T01:06:36.976Z,88.50
2022-12-31T01:11:39.859Z,88.69
2022-12-31T01:16:45.183Z,88.58
2022-12-31T01:21:48.430Z,88.83
2022-12-31T01:26:51.852Z,88.67
2022-12-31T01:31:54.812Z,88.70
2022-12-31T01:36:57.521Z,88.80
2022-12-31T01:42:00.285Z,88.88
2022-12-31T01:47:03.477Z,89.15
2022-12-31T01:52:18.327Z,89.33
2022-12-31T01:57:22.183Z,89.22
2022-12-31T02:02:25.106Z,89.28
2022-12-31T02:07:28.106Z,89.26
2022-12-31T02:12:30.971Z,89.37
2022-12-31T02:17:58.530Z,89.25
2022-12-31T02:23:46.331Z,89.37
2022-12-31T02:29:23.201Z,89.26
2022-12-31T02:34:51.662Z,89.28
2022-12-31T02:39:54.448Z,89.00
2022-12-31T02:44:57.188Z,89.17
2022-12-31T02:50:18.803Z,89.10
2022-12-31T02:55:47.360Z,89.11
2022-12-31T03:01:12.102Z,89.22
2022-12-31T03:06:15.082Z,89.27
2022-12-31T03:11:37.748Z,89.33
2022-12-31T03:16:40.526Z,89.35
2022-12-31T03:22:02.621Z,89.55
2022-12-31T03:27:05.446Z,89.65
2022-12-31T03:32:08.195Z,89.81
2022-12-31T03:37:11.035Z,89.90
2022-12-31T03:42:15.225Z,89.95
2022-12-31T03:47:18.091Z,89.77
2022-12-31T03:52:22.305Z,89.66
2022-12-31T03:57:25.145Z,89.49
2022-12-31T04:02:29.206Z,89.00
2022-12-31T04:07:32.501Z,88.82
2022-12-31T04:12:35.282Z,88.64
2022-12-31T04:17:38.136Z,88.72
2022-12-31T04:22:41.273Z,88.52
2022-12-31T04:27:44.079Z,88.57
2022-12-31T04:32:46.872Z,88.16
2022-12-31T04:37:49.643Z,88.04
2022-12-31T04:42:52.470Z,87.70
2022-12-31T04:47:55.245Z,86.68
2022-12-31T04:52:58.010Z,86.71
2022-12-31T04:58:02.381Z,86.48
2022-12-31T05:03:05.238Z,86.36
2022-12-31T05:08:09.113Z,86.33
2022-12-31T05:13:12.073Z,85.93
2022-12-31T05:18:15.139Z,85.93
2022-12-31T05:23:18.018Z,85.51
2022-12-31T05:28:20.878Z,85.59
2022-12-31T05:33:23.776Z,85.88
2022-12-31T05:38:26.579Z,85.37
2022-12-31T05:43:29.411Z,85.15
2022-12-31T05:48:32.514Z,85.31
2022-12-31T05:53:35.830Z,84.87
2022-12-31T05:58:38.624Z,84.75
2022-12-31T06:03:41.658Z,84.86
2022-12-31T06:08:44.481Z,85.23
2022-12-31T06:13:47.311Z,85.20
2022-12-31T06:18:50.973Z,85.47
2022-12-31T06:23:53.852Z,85.49
2022-12-31T06:28:56.569Z,85.42
2022-12-31T06:34:01.097Z,85.53
2022-12-31T06:39:03.893Z,85.59
2022-12-31T06:44:06.730Z,85.68
2022-12-31T06:49:09.828Z,85.86
2022-12-31T06:54:13.385Z,85.84
2022-12-31T06:59:29.254Z,85.77
2022-12-31T07:04:51.053Z,85.92
2022-12-31T07:10:44.832Z,85.92
2022-12-31T07:16:12.466Z,85.83
2022-12-31T07:21:17.648Z,85.46
2022-12-31T07:26:30.067Z,85.40
2022-12-31T07:32:00.968Z,85.37
2022-12-31T07:37:11.995Z,85.16
2022-12-31T07:42:53.758Z,84.87
2022-12-31T07:48:02.277Z,84.69
2022-12-31T07:53:06.073Z,84.78
2022-12-31T07:58:56.768Z,84.83
2022-12-31T08:04:05.338Z,84.49
2022-12-31T08:09:28.747Z,84.13
2022-12-31T08:14:31.653Z,83.67
2022-12-31T08:19:34.745Z,83.58
2022-12-31T08:24:59.706Z,83.55
2022-12-31T08:30:16.301Z,83.14
2022-12-31T08:35:35.358Z,83.07
2022-12-31T08:40:48.849Z,82.83
2022-12-31T08:45:53.167Z,82.42
2022-12-31T08:50:56.395Z,82.56
2022-12-31T08:56:07.326Z,82.49
2022-12-31T09:01:10.364Z,82.53
2022-12-31T09:06:26.706Z,81.95
2022-12-31T09:11:53.514Z,81.70
2022-12-31T09:17:09.979Z,81.27
2022-12-31T09:22:13.670Z,80.98
2022-12-31T09:27:41.002Z,81.00
2022-12-31T09:33:09.275Z,80.46
2022-12-31T09:38:31.368Z,80.26
2022-12-31T09:43:49.454Z,80.19
2022-12-31T09:49:49.313Z,80.21
2022-12-31T09:55:27.783Z,80.15
2022-12-31T10:00:43.952Z,80.21
2022-12-31T10:06:08.563Z,79.84
2022-12-31T10:11:49.395Z,79.43
2022-12-31T10:17:19.587Z,79.23
2022-12-31T10:22:44.141Z,79.58
2022-12-31T10:27:57.697Z,79.57
2022-12-31T10:33:29.368Z,79.64
2022-12-31T10:39:00.517Z,79.28
2022-12-31T10:44:36.647Z,79.13
2022-12-31T10:50:07.305Z,78.90
2022-12-31T10:55:50.212Z,77.52
2022-12-31T11:01:11.591Z,77.20
2022-12-31T11:06:29.594Z,76.84
2022-12-31T11:12:19.779Z,76.63
2022-12-31T11:17:37.175Z,76.57
2022-12-31T11:23:11.136Z,76.45
2022-12-31T11:28:36.884Z,76.55
2022-12-31T11:34:25.988Z,76.36
2022-12-31T11:40:24.560Z,75.95
2022-12-31T11:46:19.273Z,75.68
2022-12-31T11:51:50.468Z,75.92
2022-12-31T11:57:18.578Z,75.97
2022-12-31T12:02:34.931Z,75.59
2022-12-31T12:07:37.728Z,75.81
2022-12-31T12:12:43.439Z,75.51
2022-12-31T12:17:53.890Z,75.29
2022-12-31T12:22:58.574Z,75.06
2022-12-31T12:28:44.175Z,75.04
2022-12-31T12:33:49.192Z,75.02
2022-12-31T12:39:04.419Z,74.64
2022-12-31T12:44:13.701Z,74.83
2022-12-31T12:49:26.555Z,75.99
2022-12-31T12:54:37.031Z,77.92
2022-12-31T13:00:02.449Z,78.43
2022-12-31T13:05:35.744Z,78.75
2022-12-31T13:10:38.581Z,78.89
2022-12-31T13:15:58.233Z,79.44
2022-12-31T13:21:07.199Z,79.58
2022-12-31T13:26:19.223Z,79.99
2022-12-31T13:31:29.536Z,79.76
2022-12-31T13:36:32.953Z,79.77
2022-12-31T13:41:59.293Z,79.98
2022-12-31T13:47:30.305Z,79.54
2022-12-31T13:52:42.762Z,79.35
2022-12-31T13:57:49.785Z,79.33
2022-12-31T14:03:26.736Z,78.98
2022-12-31T14:08:29.637Z,78.81
2022-12-31T14:14:01.727Z,78.43
2022-12-31T14:19:55.506Z,78.50
2022-12-31T14:24:59.110Z,78.53
2022-12-31T14:30:06.815Z,78.52
2022-12-31T14:36:09.997Z,78.58
2022-12-31T14:41:33.838Z,78.51
2022-12-31T14:46:52.620Z,78.01
2022-12-31T14:52:07.441Z,78.46
2022-12-31T14:57:54.464Z,77.82
2022-12-31T15:03:13.501Z,77.71
2022-12-31T15:08:43.006Z,77.50
2022-12-31T15:14:04.789Z,77.46
2022-12-31T15:19:26.132Z,77.49
2022-12-31T15:24:30.723Z,76.95
2022-12-31T15:29:36.883Z,76.58
2022-12-31T15:34:39.846Z,76.61
2022-12-31T15:39:43.189Z,76.07
2022-12-31T15:44:52.256Z,76.26
2022-12-31T15:49:58.378Z,75.80
2022-12-31T15:55:01.203Z,75.60
2022-12-31T16:00:19.177Z,75.75
2022-12-31T16:05:25.565Z,75.63
2022-12-31T16:10:30.975Z,75.46
2022-12-31T16:15:34.283Z,75.62
2022-12-31T16:20:46.475Z,75.50
2022-12-31T16:25:50.969Z,75.59
2022-12-31T16:31:07.023Z,75.32
2022-12-31T16:36:23.109Z,75.56
2022-12-31T16:41:25.868Z,75.33
2022-12-31T16:46:30.946Z,75.45
2022-12-31T16:51:34.173Z,75.63
2022-12-31T16:56:38.604Z,75.40
2022-12-31T17:01:41.669Z,75.34
2022-12-31T17:06:44.840Z,75.68
2022-12-31T17:11:52.378Z,75.62
2022-12-31T17:17:06.989Z,75.97
2022-12-31T17:22:49.505Z,76.04
2022-12-31T17:28:05.410Z,75.96
2022-12-31T17:33:10.963Z,75.67
2022-12-31T17:38:23.050Z,75.42
2022-12-31T17:43:28.737Z,75.24
2022-12-31T17:48:36.342Z,75.36
2022-12-31T17:53:39.267Z,75.34
2022-12-31T17:58:52.664Z,74.95
2022-12-31T18:03:56.836Z,75.41
2022-12-31T18:09:00.988Z,75.27
2022-12-31T18:14:03.875Z,75.46
2022-12-31T18:19:37.709Z,75.55
2022-12-31T18:24:38.696Z,75.53
2022-12-31T18:29:41.448Z,75.78
2022-12-31T18:34:44.374Z,75.69
2022-12-31T18:39:47.220Z,75.38
2022-12-31T18:44:49.998Z,75.26
2022-12-31T18:49:52.903Z,75.31
2022-12-31T18:54:55.744Z,75.08
2022-12-31T18:59:58.477Z,74.71
2022-12-31T19:05:01.163Z,74.44
2022-12-31T19:10:04.893Z,74.20
2022-12-31T19:15:24.894Z,74.11
2022-12-31T19:20:28.552Z,73.97
2022-12-31T19:25:35.898Z,74.12
2022-12-31T19:30:38.862Z,74.11
2022-12-31T19:35:42.000Z,73.91
2022-12-31T19:40:44.815Z,73.97
2022-12-31T19:45:48.137Z,73.95
2022-12-31T19:50:52.851Z,74.08
2022-12-31T19:55:55.712Z,74.15
2022-12-31T20:01:02.959Z,74.36
2022-12-31T20:06:08.815Z,74.31
2022-12-31T20:11:21.015Z,74.71
2022-12-31T20:16:26.714Z,75.01
2022-12-31T20:21:29.944Z,75.18
2022-12-31T20:26:32.693Z,75.36
2022-12-31T20:31:35.544Z,75.84
2022-12-31T20:36:39.629Z,75.91
2022-12-31T20:41:42.439Z,76.06
2022-12-31T20:46:45.617Z,76.34
2022-12-31T20:51:52.075Z,76.37
2022-12-31T20:56:55.256Z,76.44
2022-12-31T21:07:20.864Z,76.98
2022-12-31T21:12:43.544Z,76.98
2022-12-31T21:17:46.492Z,77.19
2022-12-31T21:22:49.284Z,77.39
2022-12-31T21:27:52.066Z,77.46
2022-12-31T21:32:55.902Z,77.43
2022-12-31T21:38:03.233Z,77.73
2022-12-31T21:43:06.090Z,77.72
2022-12-31T21:48:20.552Z,77.79
2022-12-31T21:53:30.455Z,78.01
2022-12-31T21:58:41.933Z,77.93
2022-12-31T22:03:45.097Z,77.99
2022-12-31T22:08:50.634Z,77.89
2022-12-31T22:13:53.706Z,78.10
2022-12-31T22:18:56.638Z,77.90
2022-12-31T22:23:59.591Z,77.80
2022-12-31T22:29:02.323Z,77.85
2022-12-31T22:34:05.084Z,77.91
2022-12-31T22:39:09.616Z,77.91
2022-12-31T22:44:12.692Z,77.65
2022-12-31T22:49:17.192Z,77.78
2022-12-31T22:54:20.306Z,77.81
2022-12-31T22:59:24.396Z,77.69
2022-12-31T23:04:27.298Z,77.78
2022-12-31T23:09:48.673Z,77.42
2022-12-31T23:15:10.444Z,77.42
2022-12-31T23:20:40.038Z,77.88
2022-12-31T23:25:49.710Z,77.56
2022-12-31T23:30:53.682Z,77.82
2022-12-31T23:36:04.861Z,77.80
2022-12-31T23:41:18.982Z,77.77
2022-12-31T23:46:21.797Z,77.71
2022-12-31T23:51:24.653Z,77.80
2022-12-31T23:56:27.525Z,77.77
